sensor_id;sensor_type;location;lat;lon;timestamp;P1;durP1;ratioP1;P2;durP2;ratioP2
71366;SDS011;60030;52.274;8.040;2023-03-03T00:01:34;32.90;;;16.53;;
71366;SDS011;60030;52.274;8.040;2023-03-03T00:04:01;39.53;;;16.73;;
71366;SDS011;60030;52.274;8.040;2023-03-03T00:06:28;36.87;;;17.80;;
71366;SDS011;60030;52.274;8.040;2023-03-03T00:08:55;36.57;;;16.70;;
71366;SDS011;60030;52.274;8.040;2023-03-03T00:11:22;32.63;;;16.43;;
71366;SDS011;60030;52.274;8.040;2023-03-03T00:13:50;34.80;;;16.70;;
71366;SDS011;60030;52.274;8.040;2023-03-03T00:16:23;41.77;;;17.60;;
71366;SDS011;60030;52.274;8.040;2023-03-03T00:18:53;40.40;;;17.50;;
71366;SDS011;60030;52.274;8.040;2023-03-03T00:21:25;37.30;;;17.03;;
71366;SDS011;60030;52.274;8.040;2023-03-03T00:23:58;40.20;;;17.60;;
71366;SDS011;60030;52.274;8.040;2023-03-03T00:26:41;38.87;;;17.10;;
71366;SDS011;60030;52.274;8.040;2023-03-03T00:29:28;42.93;;;17.40;;
71366;SDS011;60030;52.274;8.040;2023-03-03T00:31:59;41.77;;;16.77;;
71366;SDS011;60030;52.274;8.040;2023-03-03T00:34:43;41.70;;;16.40;;
71366;SDS011;60030;52.274;8.040;2023-03-03T00:37:18;42.77;;;18.57;;
71366;SDS011;60030;52.274;8.040;2023-03-03T00:39:50;40.60;;;17.33;;
71366;SDS011;60030;52.274;8.040;2023-03-03T00:42:18;41.50;;;17.23;;
71366;SDS011;60030;52.274;8.040;2023-03-03T00:44:45;39.50;;;16.73;;
71366;SDS011;60030;52.274;8.040;2023-03-03T00:47:26;37.83;;;16.93;;
71366;SDS011;60030;52.274;8.040;2023-03-03T00:49:59;40.03;;;;;
71366;SDS011;60030;52.274;8.040;2023-03-03T00:52:52;39.13;;;16.53;;
71366;SDS011;60030;52.274;8.040;2023-03-03T00:55:36;41.13;;;16.37;;
71366;SDS011;60030;52.274;8.040;2023-03-03T00:58:03;37.57;;;16.73;;
71366;SDS011;60030;52.274;8.040;2023-03-03T01:00:35;40.03;;;16.90;;
71366;SDS011;60030;52.274;8.040;2023-03-03T01:03:05;39.97;;;16.60;;
71366;SDS011;60030;52.274;8.040;2023-03-03T01:05:35;37.03;;;15.77;;
71366;SDS011;60030;52.274;8.040;2023-03-03T01:08:03;36.37;;;16.30;;
71366;SDS011;60030;52.274;8.040;2023-03-03T01:10:31;40.40;;;17.30;;
71366;SDS011;60030;52.274;8.040;2023-03-03T01:13:01;37.97;;;16.80;;
71366;SDS011;60030;52.274;8.040;2023-03-03T01:15:30;35.07;;;15.60;;
71366;SDS011;60030;52.274;8.040;2023-03-03T01:17:57;38.70;;;15.97;;
71366;SDS011;60030;52.274;8.040;2023-03-03T01:20:24;36.77;;;16.73;;
71366;SDS011;60030;52.274;8.040;2023-03-03T01:22:52;36.57;;;15.43;;
71366;SDS011;60030;52.274;8.040;2023-03-03T01:25:20;41.93;;;16.23;;
71366;SDS011;60030;52.274;8.040;2023-03-03T01:27:47;32.23;;;14.70;;
71366;SDS011;60030;52.274;8.040;2023-03-03T01:30:15;36.57;;;14.77;;
71366;SDS011;60030;52.274;8.040;2023-03-03T01:32:42;34.37;;;14.50;;
71366;SDS011;60030;52.274;8.040;2023-03-03T01:35:09;34.77;;;14.63;;
71366;SDS011;60030;52.274;8.040;2023-03-03T01:37:36;34.63;;;15.23;;
71366;SDS011;60030;52.274;8.040;2023-03-03T01:40:05;40.77;;;15.90;;
71366;SDS011;60030;52.274;8.040;2023-03-03T01:42:38;40.00;;;16.23;;
71366;SDS011;60030;52.274;8.040;2023-03-03T01:45:09;40.80;;;15.73;;
71366;SDS011;60030;52.274;8.040;2023-03-03T01:47:41;30.27;;;15.30;;
71366;SDS011;60030;52.274;8.040;2023-03-03T01:50:13;40.40;;;16.23;;
71366;SDS011;60030;52.274;8.040;2023-03-03T01:52:53;40.33;;;15.53;;
71366;SDS011;60030;52.274;8.040;2023-03-03T01:55:27;37.50;;;14.50;;
71366;SDS011;60030;52.274;8.040;2023-03-03T01:57:58;37.30;;;14.70;;
71366;SDS011;60030;52.274;8.040;2023-03-03T02:00:28;32.20;;;13.33;;
71366;SDS011;60030;52.274;8.040;2023-03-03T02:02:58;32.60;;;13.77;;
71366;SDS011;60030;52.274;8.040;2023-03-03T02:05:25;26.83;;;12.37;;
71366;SDS011;60030;52.274;8.040;2023-03-03T02:07:52;26.70;;;11.83;;
71366;SDS011;60030;52.274;8.040;2023-03-03T02:10:20;31.53;;;13.40;;
71366;SDS011;60030;52.274;8.040;2023-03-03T02:12:50;32.47;;;12.97;;
71366;SDS011;60030;52.274;8.040;2023-03-03T02:15:19;24.77;;;11.30;;
71366;SDS011;60030;52.274;8.040;2023-03-03T02:17:48;30.10;;;13.07;;
71366;SDS011;60030;52.274;8.040;2023-03-03T02:20:20;26.30;;;12.43;;
71366;SDS011;60030;52.274;8.040;2023-03-03T02:22:58;23.07;;;11.27;;
71366;SDS011;60030;52.274;8.040;2023-03-03T02:25:33;23.57;;;10.87;;
71366;SDS011;60030;52.274;8.040;2023-03-03T02:28:08;28.17;;;12.03;;
71366;SDS011;60030;52.274;8.040;2023-03-03T02:30:36;25.37;;;11.10;;
71366;SDS011;60030;52.274;8.040;2023-03-03T02:33:05;25.63;;;11.77;;
71366;SDS011;60030;52.274;8.040;2023-03-03T02:35:33;27.70;;;12.67;;
71366;SDS011;60030;52.274;8.040;2023-03-03T02:38:16;27.13;;;11.67;;
71366;SDS011;60030;52.274;8.040;2023-03-03T02:40:52;29.37;;;12.43;;
71366;SDS011;60030;52.274;8.040;2023-03-03T02:43:28;25.17;;;11.37;;
71366;SDS011;60030;52.274;8.040;2023-03-03T02:45:59;27.13;;;12.30;;
71366;SDS011;60030;52.274;8.040;2023-03-03T02:48:26;29.60;;;13.17;;
71366;SDS011;60030;52.274;8.040;2023-03-03T02:50:53;24.77;;;10.67;;
71366;SDS011;60030;52.274;8.040;2023-03-03T02:53:20;22.23;;;10.90;;
71366;SDS011;60030;52.274;8.040;2023-03-03T02:55:47;25.87;;;11.90;;
71366;SDS011;60030;52.274;8.040;2023-03-03T02:58:14;23.77;;;10.83;;
71366;SDS011;60030;52.274;8.040;2023-03-03T03:00:42;23.77;;;10.80;;
71366;SDS011;60030;52.274;8.040;2023-03-03T03:03:14;24.73;;;10.97;;
71366;SDS011;60030;52.274;8.040;2023-03-03T03:05:41;23.27;;;10.90;;
71366;SDS011;60030;52.274;8.040;2023-03-03T03:08:09;24.23;;;11.60;;
71366;SDS011;60030;52.274;8.040;2023-03-03T03:10:36;25.87;;;10.83;;
71366;SDS011;60030;52.274;8.040;2023-03-03T03:13:04;28.43;;;11.73;;
71366;SDS011;60030;52.274;8.040;2023-03-03T03:15:31;23.10;;;11.40;;
71366;SDS011;60030;52.274;8.040;2023-03-03T03:18:01;25.00;;;10.33;;
71366;SDS011;60030;52.274;8.040;2023-03-03T03:20:30;25.00;;;11.27;;
71366;SDS011;60030;52.274;8.040;2023-03-03T03:22:57;26.27;;;10.63;;
71366;SDS011;60030;52.274;8.040;2023-03-03T03:25:24;26.03;;;10.63;;
71366;SDS011;60030;52.274;8.040;2023-03-03T03:27:51;24.57;;;11.77;;
71366;SDS011;60030;52.274;8.040;2023-03-03T03:30:18;22.27;;;11.10;;
71366;SDS011;60030;52.274;8.040;2023-03-03T03:32:47;22.13;;;11.17;;
71366;SDS011;60030;52.274;8.040;2023-03-03T03:35:16;23.60;;;10.73;;
71366;SDS011;60030;52.274;8.040;2023-03-03T03:37:43;27.47;;;11.47;;
71366;SDS011;60030;52.274;8.040;2023-03-03T03:40:11;23.63;;;11.27;;
71366;SDS011;60030;52.274;8.040;2023-03-03T03:42:39;24.60;;;10.47;;
71366;SDS011;60030;52.274;8.040;2023-03-03T03:45:07;24.40;;;10.73;;
71366;SDS011;60030;52.274;8.040;2023-03-03T03:47:35;25.43;;;11.03;;
71366;SDS011;60030;52.274;8.040;2023-03-03T03:50:03;26.17;;;11.03;;
71366;SDS011;60030;52.274;8.040;2023-03-03T03:52:32;24.23;;;10.03;;
71366;SDS011;60030;52.274;8.040;2023-03-03T03:55:00;22.87;;;10.07;;
71366;SDS011;60030;52.274;8.040;2023-03-03T03:57:27;25.47;;;11.33;;
71366;SDS011;60030;52.274;8.040;2023-03-03T03:59:54;27.50;;;11.37;;
71366;SDS011;60030;52.274;8.040;2023-03-03T04:02:21;24.50;;;10.87;;
71366;SDS011;60030;52.274;8.040;2023-03-03T04:04:48;22.23;;;10.47;;
71366;SDS011;60030;52.274;8.040;2023-03-03T04:07:15;22.13;;;10.73;;
71366;SDS011;60030;52.274;8.040;2023-03-03T04:09:44;27.17;;;10.57;;
71366;SDS011;60030;52.274;8.040;2023-03-03T04:12:11;26.43;;;10.80;;
71366;SDS011;60030;52.274;8.040;2023-03-03T04:14:39;22.20;;;10.70;;
71366;SDS011;60030;52.274;8.040;2023-03-03T04:17:06;23.77;;;10.60;;
71366;SDS011;60030;52.274;8.040;2023-03-03T04:19:33;20.93;;;10.13;;
71366;SDS011;60030;52.274;8.040;2023-03-03T04:22:00;22.63;;;10.60;;
71366;SDS011;60030;52.274;8.040;2023-03-03T04:24:28;22.60;;;9.77;;
71366;SDS011;60030;52.274;8.040;2023-03-03T04:26:57;23.20;;;9.77;;
71366;SDS011;60030;52.274;8.040;2023-03-03T04:29:25;23.07;;;9.90;;
71366;SDS011;60030;52.274;8.040;2023-03-03T04:31:53;22.87;;;10.63;;
71366;SDS011;60030;52.274;8.040;2023-03-03T04:34:21;22.17;;;10.30;;
71366;SDS011;60030;52.274;8.040;2023-03-03T04:36:48;26.23;;;9.73;;
71366;SDS011;60030;52.274;8.040;2023-03-03T04:39:15;23.40;;;10.70;;
71366;SDS011;60030;52.274;8.040;2023-03-03T04:41:43;22.60;;;9.07;;
71366;SDS011;60030;52.274;8.040;2023-03-03T04:44:11;21.73;;;10.80;;
71366;SDS011;60030;52.274;8.040;2023-03-03T04:46:38;23.57;;;10.23;;
71366;SDS011;60030;52.274;8.040;2023-03-03T04:49:06;24.23;;;10.07;;
71366;SDS011;60030;52.274;8.040;2023-03-03T04:51:34;21.27;;;10.20;;
71366;SDS011;60030;52.274;8.040;2023-03-03T04:54:01;20.70;;;9.00;;
71366;SDS011;60030;52.274;8.040;2023-03-03T04:56:28;21.37;;;9.80;;
71366;SDS011;60030;52.274;8.040;2023-03-03T04:58:56;19.67;;;9.40;;
71366;SDS011;60030;52.274;8.040;2023-03-03T05:01:25;25.70;;;10.60;;
71366;SDS011;60030;52.274;8.040;2023-03-03T05:03:52;22.20;;;10.07;;
71366;SDS011;60030;52.274;8.040;2023-03-03T05:06:19;23.13;;;10.40;;
71366;SDS011;60030;52.274;8.040;2023-03-03T05:08:46;23.70;;;10.33;;
71366;SDS011;60030;52.274;8.040;2023-03-03T05:11:13;21.50;;;9.63;;
71366;SDS011;60030;52.274;8.040;2023-03-03T05:13:40;27.27;;;10.43;;
71366;SDS011;60030;52.274;8.040;2023-03-03T05:16:07;23.37;;;10.30;;
71366;SDS011;60030;52.274;8.040;2023-03-03T05:18:36;24.40;;;10.60;;
71366;SDS011;60030;52.274;8.040;2023-03-03T05:21:03;24.60;;;11.47;;
71366;SDS011;60030;52.274;8.040;2023-03-03T05:23:31;21.33;;;10.07;;
71366;SDS011;60030;52.274;8.040;2023-03-03T05:25:58;25.83;;;11.10;;
71366;SDS011;60030;52.274;8.040;2023-03-03T05:28:25;22.70;;;9.83;;
71366;SDS011;60030;52.274;8.040;2023-03-03T05:30:52;26.10;;;10.60;;
71366;SDS011;60030;52.274;8.040;2023-03-03T05:33:19;24.10;;;10.67;;
71366;SDS011;60030;52.274;8.040;2023-03-03T05:35:51;27.03;;;10.93;;
71366;SDS011;60030;52.274;8.040;2023-03-03T05:38:19;26.27;;;12.07;;
71366;SDS011;60030;52.274;8.040;2023-03-03T05:40:46;25.33;;;11.03;;
71366;SDS011;60030;52.274;8.040;2023-03-03T05:43:13;29.63;;;11.77;;
71366;SDS011;60030;52.274;8.040;2023-03-03T05:45:40;26.73;;;12.00;;
71366;SDS011;60030;52.274;8.040;2023-03-03T05:48:08;29.87;;;11.87;;
71366;SDS011;60030;52.274;8.040;2023-03-03T05:50:35;29.23;;;12.53;;
71366;SDS011;60030;52.274;8.040;2023-03-03T05:53:04;29.80;;;11.23;;
71366;SDS011;60030;52.274;8.040;2023-03-03T05:55:31;27.40;;;10.73;;
71366;SDS011;60030;52.274;8.040;2023-03-03T05:57:58;24.67;;;11.53;;
71366;SDS011;60030;52.274;8.040;2023-03-03T06:00:25;27.87;;;10.87;;
71366;SDS011;60030;52.274;8.040;2023-03-03T06:02:52;28.90;;;12.13;;
71366;SDS011;60030;52.274;8.040;2023-03-03T06:05:20;23.60;;;10.87;;
71366;SDS011;60030;52.274;8.040;2023-03-03T06:07:47;26.63;;;11.37;;
71366;SDS011;60030;52.274;8.040;2023-03-03T06:10:15;27.97;;;11.40;;
71366;SDS011;60030;52.274;8.040;2023-03-03T06:12:47;28.60;;;11.50;;
71366;SDS011;60030;52.274;8.040;2023-03-03T06:15:14;28.37;;;11.57;;
71366;SDS011;60030;52.274;8.040;2023-03-03T06:17:41;27.87;;;11.07;;
71366;SDS011;60030;52.274;8.040;2023-03-03T06:20:08;22.57;;;10.73;;
71366;SDS011;60030;52.274;8.040;2023-03-03T06:22:36;25.50;;;10.17;;
71366;SDS011;60030;52.274;8.040;2023-03-03T06:25:03;27.57;;;11.73;;
71366;SDS011;60030;52.274;8.040;2023-03-03T06:27:32;24.30;;;11.30;;
71366;SDS011;60030;52.274;8.040;2023-03-03T06:29:59;23.93;;;10.50;;
71366;SDS011;60030;52.274;8.040;2023-03-03T06:32:27;27.70;;;10.67;;
71366;SDS011;60030;52.274;8.040;2023-03-03T06:34:54;23.20;;;10.43;;
71366;SDS011;60030;52.274;8.040;2023-03-03T06:37:21;23.10;;;9.40;;
71366;SDS011;60030;52.274;8.040;2023-03-03T06:39:48;25.77;;;10.40;;
71366;SDS011;60030;52.274;8.040;2023-03-03T06:42:16;20.57;;;9.00;;
71366;SDS011;60030;52.274;8.040;2023-03-03T06:44:45;24.43;;;10.33;;
71366;SDS011;60030;52.274;8.040;2023-03-03T06:47:12;23.30;;;8.97;;
71366;SDS011;60030;52.274;8.040;2023-03-03T06:49:39;26.80;;;10.47;;
71366;SDS011;60030;52.274;8.040;2023-03-03T06:52:09;25.67;;;10.17;;
71366;SDS011;60030;52.274;8.040;2023-03-03T06:54:39;24.63;;;9.97;;
71366;SDS011;60030;52.274;8.040;2023-03-03T06:57:10;23.67;;;9.87;;
71366;SDS011;60030;52.274;8.040;2023-03-03T06:59:42;23.80;;;10.90;;
71366;SDS011;60030;52.274;8.040;2023-03-03T07:02:14;24.83;;;10.17;;
71366;SDS011;60030;52.274;8.040;2023-03-03T07:04:43;23.43;;;10.20;;
71366;SDS011;60030;52.274;8.040;2023-03-03T07:07:14;22.43;;;10.27;;
71366;SDS011;60030;52.274;8.040;2023-03-03T07:09:43;21.90;;;10.20;;
71366;SDS011;60030;52.274;8.040;2023-03-03T07:12:12;21.23;;;9.00;;
71366;SDS011;60030;52.274;8.040;2023-03-03T07:14:42;19.93;;;9.53;;
71366;SDS011;60030;52.274;8.040;2023-03-03T07:17:13;22.30;;;9.97;;
71366;SDS011;60030;52.274;8.040;2023-03-03T07:19:42;19.73;;;9.30;;
71366;SDS011;60030;52.274;8.040;2023-03-03T07:22:15;20.40;;;9.03;;
71366;SDS011;60030;52.274;8.040;2023-03-03T07:24:43;20.57;;;8.77;;
71366;SDS011;60030;52.274;8.040;2023-03-03T07:27:13;19.03;;;9.70;;
71366;SDS011;60030;52.274;8.040;2023-03-03T07:29:45;18.97;;;9.23;;
71366;SDS011;60030;52.274;8.040;2023-03-03T07:35:06;21.17;;;9.67;;
71366;SDS011;60030;52.274;8.040;2023-03-03T07:37:47;25.70;;;11.07;;
71366;SDS011;60030;52.274;8.040;2023-03-03T07:40:24;25.00;;;10.83;;
71366;SDS011;60030;52.274;8.040;2023-03-03T07:42:59;25.97;;;11.10;;
71366;SDS011;60030;52.274;8.040;2023-03-03T07:45:35;25.00;;;10.77;;
71366;SDS011;60030;52.274;8.040;2023-03-03T07:48:08;25.17;;;11.00;;
71366;SDS011;60030;52.274;8.040;2023-03-03T07:50:42;24.03;;;10.53;;
71366;SDS011;60030;52.274;8.040;2023-03-03T07:53:11;28.87;;;11.57;;
71366;SDS011;60030;52.274;8.040;2023-03-03T07:55:52;26.13;;;11.53;;
71366;SDS011;60030;52.274;8.040;2023-03-03T07:58:21;27.73;;;11.57;;
71366;SDS011;60030;52.274;8.040;2023-03-03T08:03:56;28.90;;;12.13;;
71366;SDS011;60030;52.274;8.040;2023-03-03T08:06:27;31.40;;;12.17;;
71366;SDS011;60030;52.274;8.040;2023-03-03T08:09:01;26.60;;;11.50;;
71366;SDS011;60030;52.274;8.040;2023-03-03T08:15:19;33.33;;;13.27;;
71366;SDS011;60030;52.274;8.040;2023-03-03T08:17:48;28.97;;;12.63;;
71366;SDS011;60030;52.274;8.040;2023-03-03T08:23:12;31.93;;;12.57;;
71366;SDS011;60030;52.274;8.040;2023-03-03T08:25:40;33.23;;;13.63;;
71366;SDS011;60030;52.274;8.040;2023-03-03T08:28:08;28.73;;;12.57;;
71366;SDS011;60030;52.274;8.040;2023-03-03T08:30:35;34.43;;;12.83;;
71366;SDS011;60030;52.274;8.040;2023-03-03T08:33:02;33.30;;;12.30;;
71366;SDS011;60030;52.274;8.040;2023-03-03T08:35:30;31.17;;;13.20;;
71366;SDS011;60030;52.274;8.040;2023-03-03T08:37:58;37.17;;;13.63;;
71366;SDS011;60030;52.274;8.040;2023-03-03T08:40:25;32.87;;;13.93;;
71366;SDS011;60030;52.274;8.040;2023-03-03T08:42:53;37.37;;;14.47;;
71366;SDS011;60030;52.274;8.040;2023-03-03T08:45:20;34.47;;;13.60;;
71366;SDS011;60030;52.274;8.040;2023-03-03T08:47:47;40.00;;;14.23;;
71366;SDS011;60030;52.274;8.040;2023-03-03T08:50:14;36.23;;;14.67;;
71366;SDS011;60030;52.274;8.040;2023-03-03T08:52:42;32.60;;;13.07;;
71366;SDS011;60030;52.274;8.040;2023-03-03T08:55:11;40.20;;;14.97;;
71366;SDS011;60030;52.274;8.040;2023-03-03T08:57:38;34.13;;;14.30;;
71366;SDS011;60030;52.274;8.040;2023-03-03T09:00:06;31.20;;;12.87;;
71366;SDS011;60030;52.274;8.040;2023-03-03T09:02:35;31.87;;;13.60;;
71366;SDS011;60030;52.274;8.040;2023-03-03T09:05:02;35.27;;;14.77;;
71366;SDS011;60030;52.274;8.040;2023-03-03T09:07:29;31.57;;;13.27;;
71366;SDS011;60030;52.274;8.040;2023-03-03T09:09:56;35.33;;;15.47;;
71366;SDS011;60030;52.274;8.040;2023-03-03T09:12:26;35.90;;;14.53;;
71366;SDS011;60030;52.274;8.040;2023-03-03T09:14:57;35.87;;;14.90;;
71366;SDS011;60030;52.274;8.040;2023-03-03T09:17:26;40.83;;;15.60;;
71366;SDS011;60030;52.274;8.040;2023-03-03T09:19:57;40.70;;;14.70;;
71366;SDS011;60030;52.274;8.040;2023-03-03T09:22:28;39.73;;;15.33;;
71366;SDS011;60030;52.274;8.040;2023-03-03T09:24:59;38.53;;;15.07;;
71366;SDS011;60030;52.274;8.040;2023-03-03T09:27:30;44.23;;;18.07;;
71366;SDS011;60030;52.274;8.040;2023-03-03T09:30:00;46.03;;;18.40;;
71366;SDS011;60030;52.274;8.040;2023-03-03T09:32:40;40.43;;;17.30;;
71366;SDS011;60030;52.274;8.040;2023-03-03T09:35:25;39.57;;;18.07;;
71366;SDS011;60030;52.274;8.040;2023-03-03T09:38:04;40.67;;;16.70;;
71366;SDS011;60030;52.274;8.040;2023-03-03T09:40:44;35.40;;;15.10;;
71366;SDS011;60030;52.274;8.040;2023-03-03T09:43:22;39.33;;;15.67;;
71366;SDS011;60030;52.274;8.040;2023-03-03T09:45:56;40.13;;;16.07;;
71366;SDS011;60030;52.274;8.040;2023-03-03T09:48:39;39.63;;;16.37;;
71366;SDS011;60030;52.274;8.040;2023-03-03T09:51:27;34.10;;;16.50;;
71366;SDS011;60030;52.274;8.040;2023-03-03T09:57:19;46.93;;;18.87;;
71366;SDS011;60030;52.274;8.040;2023-03-03T10:00:06;54.47;;;22.23;;
71366;SDS011;60030;52.274;8.040;2023-03-03T10:02:46;48.27;;;21.50;;
71366;SDS011;60030;52.274;8.040;2023-03-03T10:05:25;43.93;;;18.00;;
71366;SDS011;60030;52.274;8.040;2023-03-03T10:08:05;39.90;;;18.10;;
71366;SDS011;60030;52.274;8.040;2023-03-03T10:10:47;44.73;;;17.53;;
71366;SDS011;60030;52.274;8.040;2023-03-03T10:13:25;51.60;;;18.90;;
71366;SDS011;60030;52.274;8.040;2023-03-03T10:16:15;39.90;;;17.60;;
71366;SDS011;60030;52.274;8.040;2023-03-03T10:19:02;43.80;;;16.57;;
71366;SDS011;60030;52.274;8.040;2023-03-03T10:21:38;51.57;;;18.37;;
71366;SDS011;60030;52.274;8.040;2023-03-03T10:24:14;45.63;;;19.83;;
71366;SDS011;60030;52.274;8.040;2023-03-03T10:26:55;58.87;;;22.70;;
71366;SDS011;60030;52.274;8.040;2023-03-03T10:29:32;47.57;;;20.53;;
71366;SDS011;60030;52.274;8.040;2023-03-03T10:32:11;44.50;;;19.10;;
71366;SDS011;60030;52.274;8.040;2023-03-03T10:34:54;46.50;;;20.47;;
71366;SDS011;60030;52.274;8.040;2023-03-03T10:37:31;40.17;;;17.20;;
71366;SDS011;60030;52.274;8.040;2023-03-03T10:40:08;39.67;;;17.17;;
71366;SDS011;60030;52.274;8.040;2023-03-03T10:42:46;36.27;;;16.63;;
71366;SDS011;60030;52.274;8.040;2023-03-03T10:45:44;37.47;;;17.63;;
71366;SDS011;60030;52.274;8.040;2023-03-03T10:48:53;37.67;;;16.23;;
71366;SDS011;60030;52.274;8.040;2023-03-03T10:51:32;33.13;;;15.00;;
71366;SDS011;60030;52.274;8.040;2023-03-03T10:54:16;36.23;;;15.80;;
71366;SDS011;60030;52.274;8.040;2023-03-03T10:56:56;37.00;;;14.67;;
71366;SDS011;60030;52.274;8.040;2023-03-03T10:59:42;38.37;;;15.70;;
71366;SDS011;60030;52.274;8.040;2023-03-03T11:02:20;35.23;;;15.17;;
71366;SDS011;60030;52.274;8.040;2023-03-03T11:05:00;32.60;;;15.13;;
71366;SDS011;60030;52.274;8.040;2023-03-03T11:07:37;31.17;;;14.13;;
71366;SDS011;60030;52.274;8.040;2023-03-03T11:10:18;32.77;;;14.93;;
71366;SDS011;60030;52.274;8.040;2023-03-03T11:12:55;36.90;;;18.97;;
71366;SDS011;60030;52.274;8.040;2023-03-03T11:15:43;36.97;;;18.17;;
71366;SDS011;60030;52.274;8.040;2023-03-03T11:18:20;38.27;;;16.93;;
71366;SDS011;60030;52.274;8.040;2023-03-03T11:20:57;38.40;;;17.53;;
71366;SDS011;60030;52.274;8.040;2023-03-03T11:23:45;34.27;;;17.17;;
71366;SDS011;60030;52.274;8.040;2023-03-03T11:32:03;32.90;;;15.50;;
71366;SDS011;60030;52.274;8.040;2023-03-03T11:34:47;31.33;;;13.03;;
71366;SDS011;60030;52.274;8.040;2023-03-03T11:37:25;29.67;;;15.13;;
71366;SDS011;60030;52.274;8.040;2023-03-03T11:40:03;33.80;;;13.83;;
71366;SDS011;60030;52.274;8.040;2023-03-03T11:42:41;28.77;;;13.43;;
71366;SDS011;60030;52.274;8.040;2023-03-03T11:45:19;26.80;;;13.20;;
71366;SDS011;60030;52.274;8.040;2023-03-03T11:47:53;26.17;;;12.10;;
71366;SDS011;60030;52.274;8.040;2023-03-03T11:50:26;27.13;;;12.80;;
71366;SDS011;60030;52.274;8.040;2023-03-03T11:53:03;27.27;;;13.20;;
71366;SDS011;60030;52.274;8.040;2023-03-03T11:55:46;23.80;;;11.83;;
71366;SDS011;60030;52.274;8.040;2023-03-03T11:58:21;21.70;;;11.10;;
71366;SDS011;60030;52.274;8.040;2023-03-03T12:00:55;23.53;;;11.43;;
71366;SDS011;60030;52.274;8.040;2023-03-03T12:03:28;22.67;;;11.83;;
71366;SDS011;60030;52.274;8.040;2023-03-03T12:06:06;22.23;;;11.27;;
71366;SDS011;60030;52.274;8.040;2023-03-03T12:08:59;20.63;;;11.30;;
71366;SDS011;60030;52.274;8.040;2023-03-03T12:11:32;25.57;;;13.13;;
71366;SDS011;60030;52.274;8.040;2023-03-03T12:14:08;25.17;;;13.40;;
71366;SDS011;60030;52.274;8.040;2023-03-03T12:16:43;22.00;;;11.10;;
71366;SDS011;60030;52.274;8.040;2023-03-03T12:19:24;21.83;;;11.37;;
71366;SDS011;60030;52.274;8.040;2023-03-03T12:22:04;20.87;;;10.87;;
71366;SDS011;60030;52.274;8.040;2023-03-03T12:27:37;24.67;;;11.23;;
71366;SDS011;60030;52.274;8.040;2023-03-03T12:30:12;21.97;;;10.83;;
71366;SDS011;60030;52.274;8.040;2023-03-03T12:32:50;16.90;;;9.63;;
71366;SDS011;60030;52.274;8.040;2023-03-03T12:35:34;22.33;;;10.77;;
71366;SDS011;60030;52.274;8.040;2023-03-03T12:38:10;20.50;;;10.27;;
71366;SDS011;60030;52.274;8.040;2023-03-03T12:40:50;19.53;;;10.63;;
71366;SDS011;60030;52.274;8.040;2023-03-03T12:43:28;19.27;;;10.70;;
71366;SDS011;60030;52.274;8.040;2023-03-03T12:46:18;26.10;;;10.63;;
71366;SDS011;60030;52.274;8.040;2023-03-03T12:48:48;21.93;;;10.67;;
71366;SDS011;60030;52.274;8.040;2023-03-03T12:51:17;21.40;;;10.50;;
71366;SDS011;60030;52.274;8.040;2023-03-03T12:56:51;20.73;;;10.53;;
71366;SDS011;60030;52.274;8.040;2023-03-03T12:59:24;18.43;;;10.17;;
71366;SDS011;60030;52.274;8.040;2023-03-03T13:02:02;18.77;;;9.50;;
71366;SDS011;60030;52.274;8.040;2023-03-03T13:04:50;17.33;;;9.43;;
71366;SDS011;60030;52.274;8.040;2023-03-03T13:07:22;14.77;;;8.77;;
71366;SDS011;60030;52.274;8.040;2023-03-03T13:10:02;18.17;;;9.47;;
71366;SDS011;60030;52.274;8.040;2023-03-03T13:12:42;14.70;;;8.17;;
71366;SDS011;60030;52.274;8.040;2023-03-03T13:15:14;16.37;;;8.43;;
71366;SDS011;60030;52.274;8.040;2023-03-03T13:17:49;14.93;;;8.20;;
71366;SDS011;60030;52.274;8.040;2023-03-03T13:20:28;13.53;;;7.77;;
71366;SDS011;60030;52.274;8.040;2023-03-03T13:23:04;12.43;;;8.13;;
71366;SDS011;60030;52.274;8.040;2023-03-03T13:25:40;15.17;;;8.23;;
71366;SDS011;60030;52.274;8.040;2023-03-03T13:28:18;15.00;;;8.00;;
71366;SDS011;60030;52.274;8.040;2023-03-03T13:30:53;15.53;;;8.13;;
71366;SDS011;60030;52.274;8.040;2023-03-03T13:33:27;13.37;;;7.57;;
71366;SDS011;60030;52.274;8.040;2023-03-03T13:35:58;13.27;;;7.50;;
71366;SDS011;60030;52.274;8.040;2023-03-03T13:38:29;13.40;;;7.63;;
71366;SDS011;60030;52.274;8.040;2023-03-03T13:41:01;12.73;;;7.90;;
71366;SDS011;60030;52.274;8.040;2023-03-03T13:43:37;13.03;;;7.30;;
71366;SDS011;60030;52.274;8.040;2023-03-03T13:46:11;14.07;;;7.40;;
71366;SDS011;60030;52.274;8.040;2023-03-03T13:51:43;13.33;;;7.37;;
71366;SDS011;60030;52.274;8.040;2023-03-03T13:54:33;12.50;;;7.00;;
71366;SDS011;60030;52.274;8.040;2023-03-03T13:57:14;12.40;;;6.93;;
71366;SDS011;60030;52.274;8.040;2023-03-03T14:00:08;13.63;;;6.90;;
71366;SDS011;60030;52.274;8.040;2023-03-03T14:02:56;10.90;;;7.00;;
71366;SDS011;60030;52.274;8.040;2023-03-03T14:05:43;11.00;;;6.90;;
71366;SDS011;60030;52.274;8.040;2023-03-03T14:08:16;13.17;;;7.53;;
71366;SDS011;60030;52.274;8.040;2023-03-03T14:10:57;14.00;;;7.67;;
71366;SDS011;60030;52.274;8.040;2023-03-03T14:13:33;10.77;;;6.40;;
71366;SDS011;60030;52.274;8.040;2023-03-03T14:16:13;10.80;;;7.13;;
71366;SDS011;60030;52.274;8.040;2023-03-03T14:18:45;12.50;;;6.73;;
71366;SDS011;60030;52.274;8.040;2023-03-03T14:21:25;12.33;;;7.67;;
71366;SDS011;60030;52.274;8.040;2023-03-03T14:23:57;12.43;;;7.53;;
71366;SDS011;60030;52.274;8.040;2023-03-03T14:26:27;11.37;;;6.97;;
71366;SDS011;60030;52.274;8.040;2023-03-03T14:29:03;12.60;;;7.57;;
71366;SDS011;60030;52.274;8.040;2023-03-03T14:31:43;12.73;;;7.23;;
71366;SDS011;60030;52.274;8.040;2023-03-03T14:34:31;12.40;;;7.50;;
71366;SDS011;60030;52.274;8.040;2023-03-03T14:37:20;12.30;;;7.13;;
71366;SDS011;60030;52.274;8.040;2023-03-03T14:39:50;14.23;;;7.43;;
71366;SDS011;60030;52.274;8.040;2023-03-03T14:42:31;11.90;;;7.20;;
71366;SDS011;60030;52.274;8.040;2023-03-03T14:45:12;11.73;;;7.30;;
71366;SDS011;60030;52.274;8.040;2023-03-03T14:47:47;11.33;;;7.47;;
71366;SDS011;60030;52.274;8.040;2023-03-03T14:53:06;12.80;;;6.57;;
71366;SDS011;60030;52.274;8.040;2023-03-03T14:55:46;10.57;;;6.87;;
71366;SDS011;60030;52.274;8.040;2023-03-03T14:58:25;10.77;;;6.57;;
71366;SDS011;60030;52.274;8.040;2023-03-03T15:01:08;11.57;;;7.33;;
71366;SDS011;60030;52.274;8.040;2023-03-03T15:03:48;13.17;;;8.10;;
71366;SDS011;60030;52.274;8.040;2023-03-03T15:06:27;12.33;;;7.30;;
71366;SDS011;60030;52.274;8.040;2023-03-03T15:12:00;12.47;;;7.83;;
71366;SDS011;60030;52.274;8.040;2023-03-03T15:14:30;13.07;;;8.80;;
71366;SDS011;60030;52.274;8.040;2023-03-03T15:17:24;10.87;;;7.20;;
71366;SDS011;60030;52.274;8.040;2023-03-03T15:20:07;12.03;;;7.30;;
71366;SDS011;60030;52.274;8.040;2023-03-03T15:22:47;11.67;;;7.50;;
71366;SDS011;60030;52.274;8.040;2023-03-03T15:25:23;11.13;;;7.13;;
71366;SDS011;60030;52.274;8.040;2023-03-03T15:28:00;12.73;;;7.03;;
71366;SDS011;60030;52.274;8.040;2023-03-03T15:30:38;11.23;;;6.87;;
71366;SDS011;60030;52.274;8.040;2023-03-03T15:33:13;11.20;;;6.53;;